sensor_id;sensor_type;location;lat;lon;timestamp;temperature;humidity
27797;DHT22;15177;50.844;4.412;2022-08-01T00:02:15;22.50;99.90
27797;DHT22;15177;50.844;4.412;2022-08-01T00:04:41;22.50;99.90
27797;DHT22;15177;50.844;4.412;2022-08-01T00:07:07;22.50;99.90
27797;DHT22;15177;50.844;4.412;2022-08-01T00:09:32;22.60;99.90
27797;DHT22;15177;50.844;4.412;2022-08-01T00:11:58;22.60;99.90
27797;DHT22;15177;50.844;4.412;2022-08-01T00:14:24;22.60;99.90
27797;DHT22;15177;50.844;4.412;2022-08-01T00:16:49;22.60;99.90
27797;DHT22;15177;50.844;4.412;2022-08-01T00:19:15;22.60;99.90
27797;DHT22;15177;50.844;4.412;2022-08-01T00:21:41;22.50;99.90
27797;DHT22;15177;50.844;4.412;2022-08-01T00:24:06;22.50;99.90
27797;DHT22;15177;50.844;4.412;2022-08-01T00:26:32;22.40;99.90
27797;DHT22;15177;50.844;4.412;2022-08-01T00:28:57;22.30;99.90
27797;DHT22;15177;50.844;4.412;2022-08-01T00:31:23;22.20;99.90
27797;DHT22;15177;50.844;4.412;2022-08-01T00:33:48;22.10;99.90
27797;DHT22;15177;50.844;4.412;2022-08-01T00:36:14;22.20;99.90
27797;DHT22;15177;50.844;4.412;2022-08-01T00:38:40;22.20;99.90
27797;DHT22;15177;50.844;4.412;2022-08-01T00:41:05;22.10;99.90
27797;DHT22;15177;50.844;4.412;2022-08-01T00:43:31;22.20;99.90
27797;DHT22;15177;50.844;4.412;2022-08-01T00:45:56;22.10;99.90
27797;DHT22;15177;50.844;4.412;2022-08-01T00:48:23;22.00;99.90
27797;DHT22;15177;50.844;4.412;2022-08-01T00:50:49;21.90;99.90
27797;DHT22;15177;50.844;4.412;2022-08-01T00:53:15;21.80;99.90
27797;DHT22;15177;50.844;4.412;2022-08-01T00:55:41;21.90;99.90
27797;DHT22;15177;50.844;4.412;2022-08-01T00:58:06;21.90;99.90
27797;DHT22;15177;50.844;4.412;2022-08-01T01:00:34;21.90;99.90
27797;DHT22;15177;50.844;4.412;2022-08-01T01:03:00;22.00;99.90
27797;DHT22;15177;50.844;4.412;2022-08-01T01:05:26;22.10;99.90
27797;DHT22;15177;50.844;4.412;2022-08-01T01:10:40;22.30;99.90
27797;DHT22;15177;50.844;4.412;2022-08-01T01:13:49;22.10;99.90
27797;DHT22;15177;50.844;4.412;2022-08-01T01:16:14;22.10;99.90
27797;DHT22;15177;50.844;4.412;2022-08-01T01:23:50;22.20;99.90
27797;DHT22;15177;50.844;4.412;2022-08-01T01:31:57;22.20;99.90
27797;DHT22;15177;50.844;4.412;2022-08-01T01:34:24;22.20;99.90
27797;DHT22;15177;50.844;4.412;2022-08-01T01:36:54;22.20;99.90
27797;DHT22;15177;50.844;4.412;2022-08-01T01:39:21;22.20;99.90
27797;DHT22;15177;50.844;4.412;2022-08-01T01:41:49;22.20;99.90
27797;DHT22;15177;50.844;4.412;2022-08-01T01:44:17;22.20;99.90
27797;DHT22;15177;50.844;4.412;2022-08-01T01:46:43;22.20;99.90
27797;DHT22;15177;50.844;4.412;2022-08-01T01:49:11;22.10;99.90
27797;DHT22;15177;50.844;4.412;2022-08-01T01:51:38;22.10;99.90
27797;DHT22;15177;50.844;4.412;2022-08-01T01:54:05;22.10;99.90
27797;DHT22;15177;50.844;4.412;2022-08-01T01:56:33;22.00;99.90
27797;DHT22;15177;50.844;4.412;2022-08-01T01:59:02;22.10;99.90
27797;DHT22;15177;50.844;4.412;2022-08-01T02:01:31;22.10;99.90
27797;DHT22;15177;50.844;4.412;2022-08-01T02:03:57;22.10;99.90
27797;DHT22;15177;50.844;4.412;2022-08-01T02:06:25;22.00;99.90
27797;DHT22;15177;50.844;4.412;2022-08-01T02:08:53;21.90;99.90
27797;DHT22;15177;50.844;4.412;2022-08-01T02:11:20;21.80;99.90
27797;DHT22;15177;50.844;4.412;2022-08-01T02:13:56;21.70;99.90
27797;DHT22;15177;50.844;4.412;2022-08-01T02:16:26;21.60;99.90
27797;DHT22;15177;50.844;4.412;2022-08-01T02:18:53;21.60;99.90
27797;DHT22;15177;50.844;4.412;2022-08-01T02:21:26;21.60;99.90
27797;DHT22;15177;50.844;4.412;2022-08-01T02:23:54;21.70;99.90
27797;DHT22;15177;50.844;4.412;2022-08-01T02:26:21;21.60;99.90
27797;DHT22;15177;50.844;4.412;2022-08-01T02:28:56;21.60;99.90
27797;DHT22;15177;50.844;4.412;2022-08-01T02:31:24;21.50;99.90
27797;DHT22;15177;50.844;4.412;2022-08-01T02:34:02;21.50;99.90
27797;DHT22;15177;50.844;4.412;2022-08-01T02:36:30;21.60;99.90
27797;DHT22;15177;50.844;4.412;2022-08-01T02:38:57;21.70;99.90
27797;DHT22;15177;50.844;4.412;2022-08-01T02:41:25;21.80;99.90
27797;DHT22;15177;50.844;4.412;2022-08-01T02:43:53;21.90;99.90
27797;DHT22;15177;50.844;4.412;2022-08-01T02:46:35;21.90;99.90
27797;DHT22;15177;50.844;4.412;2022-08-01T02:49:03;21.80;99.90
27797;DHT22;15177;50.844;4.412;2022-08-01T02:51:31;21.60;99.90
27797;DHT22;15177;50.844;4.412;2022-08-01T02:53:57;21.50;99.90
27797;DHT22;15177;50.844;4.412;2022-08-01T02:56:25;21.40;99.90
27797;DHT22;15177;50.844;4.412;2022-08-01T02:59:05;21.30;99.90
27797;DHT22;15177;50.844;4.412;2022-08-01T03:01:34;21.20;99.90
27797;DHT22;15177;50.844;4.412;2022-08-01T03:04:00;21.40;99.90
27797;DHT22;15177;50.844;4.412;2022-08-01T03:06:28;21.40;99.90
27797;DHT22;15177;50.844;4.412;2022-08-01T03:08:54;21.40;99.90
27797;DHT22;15177;50.844;4.412;2022-08-01T03:11:23;21.60;99.90
27797;DHT22;15177;50.844;4.412;2022-08-01T03:13:50;21.70;99.90
27797;DHT22;15177;50.844;4.412;2022-08-01T03:16:18;21.70;99.90
27797;DHT22;15177;50.844;4.412;2022-08-01T03:18:46;21.70;99.90
27797;DHT22;15177;50.844;4.412;2022-08-01T03:21:14;21.60;99.90
27797;DHT22;15177;50.844;4.412;2022-08-01T03:23:41;21.40;99.90
27797;DHT22;15177;50.844;4.412;2022-08-01T03:26:08;21.40;99.90
27797;DHT22;15177;50.844;4.412;2022-08-01T03:28:35;21.40;99.90
27797;DHT22;15177;50.844;4.412;2022-08-01T03:31:02;21.40;99.90
27797;DHT22;15177;50.844;4.412;2022-08-01T03:33:29;21.40;99.90
27797;DHT22;15177;50.844;4.412;2022-08-01T03:35:55;21.40;99.90
27797;DHT22;15177;50.844;4.412;2022-08-01T03:38:25;21.50;99.90
27797;DHT22;15177;50.844;4.412;2022-08-01T03:43:41;21.50;99.90
27797;DHT22;15177;50.844;4.412;2022-08-01T03:46:17;21.60;99.90
27797;DHT22;15177;50.844;4.412;2022-08-01T03:48:47;21.50;99.90
27797;DHT22;15177;50.844;4.412;2022-08-01T03:51:14;21.50;99.90
27797;DHT22;15177;50.844;4.412;2022-08-01T03:53:42;21.40;99.90
27797;DHT22;15177;50.844;4.412;2022-08-01T03:56:10;21.40;99.90
27797;DHT22;15177;50.844;4.412;2022-08-01T03:58:42;21.30;99.90
27797;DHT22;15177;50.844;4.412;2022-08-01T04:01:08;21.20;99.90
27797;DHT22;15177;50.844;4.412;2022-08-01T04:03:37;21.40;99.90
27797;DHT22;15177;50.844;4.412;2022-08-01T04:06:06;21.40;99.90
27797;DHT22;15177;50.844;4.412;2022-08-01T04:08:37;21.40;99.90
27797;DHT22;15177;50.844;4.412;2022-08-01T04:11:03;21.40;99.90
27797;DHT22;15177;50.844;4.412;2022-08-01T04:13:31;21.40;99.90
27797;DHT22;15177;50.844;4.412;2022-08-01T04:15:57;21.40;99.90
27797;DHT22;15177;50.844;4.412;2022-08-01T04:18:23;21.40;99.90
27797;DHT22;15177;50.844;4.412;2022-08-01T04:20:49;21.30;99.90
27797;DHT22;15177;50.844;4.412;2022-08-01T04:23:17;21.40;99.90
27797;DHT22;15177;50.844;4.412;2022-08-01T04:25:44;21.40;99.90
27797;DHT22;15177;50.844;4.412;2022-08-01T04:28:13;21.40;99.90
27797;DHT22;15177;50.844;4.412;2022-08-01T04:30:44;21.40;99.90
27797;DHT22;15177;50.844;4.412;2022-08-01T04:33:14;21.40;99.90
27797;DHT22;15177;50.844;4.412;2022-08-01T04:35:43;21.20;99.90
27797;DHT22;15177;50.844;4.412;2022-08-01T04:38:13;21.20;99.90
27797;DHT22;15177;50.844;4.412;2022-08-01T04:40:42;21.20;99.90
27797;DHT22;15177;50.844;4.412;2022-08-01T04:43:11;21.20;99.90
27797;DHT22;15177;50.844;4.412;2022-08-01T04:45:36;21.20;99.90
27797;DHT22;15177;50.844;4.412;2022-08-01T04:48:05;21.10;99.90
27797;DHT22;15177;50.844;4.412;2022-08-01T04:50:32;21.00;99.90
27797;DHT22;15177;50.844;4.412;2022-08-01T04:52:58;20.90;99.90
27797;DHT22;15177;50.844;4.412;2022-08-01T04:55:23;20.90;99.90
27797;DHT22;15177;50.844;4.412;2022-08-01T04:57:49;20.90;99.90
27797;DHT22;15177;50.844;4.412;2022-08-01T05:00:15;20.80;99.90
27797;DHT22;15177;50.844;4.412;2022-08-01T05:02:43;20.80;99.90
27797;DHT22;15177;50.844;4.412;2022-08-01T05:05:09;20.90;99.90
27797;DHT22;15177;50.844;4.412;2022-08-01T05:07:35;20.90;99.90
27797;DHT22;15177;50.844;4.412;2022-08-01T05:10:04;21.00;99.90
27797;DHT22;15177;50.844;4.412;2022-08-01T05:12:31;21.10;99.90
27797;DHT22;15177;50.844;4.412;2022-08-01T05:15:00;21.10;99.90
27797;DHT22;15177;50.844;4.412;2022-08-01T05:17:26;21.10;99.90
27797;DHT22;15177;50.844;4.412;2022-08-01T05:19:52;21.20;99.90
27797;DHT22;15177;50.844;4.412;2022-08-01T05:22:18;21.30;99.90
27797;DHT22;15177;50.844;4.412;2022-08-01T05:24:43;21.30;99.90
27797;DHT22;15177;50.844;4.412;2022-08-01T05:27:09;21.40;99.90
27797;DHT22;15177;50.844;4.412;2022-08-01T05:29:35;21.40;99.90
27797;DHT22;15177;50.844;4.412;2022-08-01T05:32:01;21.40;99.90
27797;DHT22;15177;50.844;4.412;2022-08-01T05:34:27;21.40;99.90
27797;DHT22;15177;50.844;4.412;2022-08-01T05:36:53;21.50;99.90
27797;DHT22;15177;50.844;4.412;2022-08-01T05:39:18;21.40;99.90
27797;DHT22;15177;50.844;4.412;2022-08-01T05:41:44;21.30;99.90
27797;DHT22;15177;50.844;4.412;2022-08-01T05:44:10;21.30;99.90
27797;DHT22;15177;50.844;4.412;2022-08-01T05:46:36;21.30;99.90
27797;DHT22;15177;50.844;4.412;2022-08-01T05:49:03;21.40;99.90
27797;DHT22;15177;50.844;4.412;2022-08-01T05:51:30;21.50;99.90
27797;DHT22;15177;50.844;4.412;2022-08-01T05:53:56;21.50;99.90
27797;DHT22;15177;50.844;4.412;2022-08-01T05:56:24;21.60;99.90
27797;DHT22;15177;50.844;4.412;2022-08-01T05:58:50;21.70;99.90
27797;DHT22;15177;50.844;4.412;2022-08-01T06:01:18;21.60;99.90
27797;DHT22;15177;50.844;4.412;2022-08-01T06:03:44;21.60;99.90
27797;DHT22;15177;50.844;4.412;2022-08-01T06:06:09;21.70;99.90
27797;DHT22;15177;50.844;4.412;2022-08-01T06:08:35;21.80;99.90
27797;DHT22;15177;50.844;4.412;2022-08-01T06:11:01;21.90;99.90
27797;DHT22;15177;50.844;4.412;2022-08-01T06:13:27;22.00;99.90
27797;DHT22;15177;50.844;4.412;2022-08-01T06:15:52;22.00;99.90
27797;DHT22;15177;50.844;4.412;2022-08-01T06:18:18;22.10;99.90
27797;DHT22;15177;50.844;4.412;2022-08-01T06:20:43;22.20;99.90
27797;DHT22;15177;50.844;4.412;2022-08-01T06:23:09;22.20;99.90
27797;DHT22;15177;50.844;4.412;2022-08-01T06:25:35;22.30;99.90
27797;DHT22;15177;50.844;4.412;2022-08-01T06:28:02;22.30;99.90
27797;DHT22;15177;50.844;4.412;2022-08-01T06:30:28;22.20;99.90
27797;DHT22;15177;50.844;4.412;2022-08-01T06:32:53;22.10;99.90
27797;DHT22;15177;50.844;4.412;2022-08-01T06:35:21;22.20;99.90
27797;DHT22;15177;50.844;4.412;2022-08-01T06:37:47;22.10;99.90
27797;DHT22;15177;50.844;4.412;2022-08-01T06:40:13;22.10;99.90
27797;DHT22;15177;50.844;4.412;2022-08-01T06:42:39;22.10;99.90
27797;DHT22;15177;50.844;4.412;2022-08-01T06:45:07;22.20;99.90
27797;DHT22;15177;50.844;4.412;2022-08-01T06:47:33;22.30;99.90
27797;DHT22;15177;50.844;4.412;2022-08-01T06:49:59;22.50;99.90
27797;DHT22;15177;50.844;4.412;2022-08-01T06:52:25;22.50;99.90
27797;DHT22;15177;50.844;4.412;2022-08-01T06:54:51;22.60;99.90
27797;DHT22;15177;50.844;4.412;2022-08-01T06:57:17;22.70;99.90
27797;DHT22;15177;50.844;4.412;2022-08-01T06:59:42;22.80;99.90
27797;DHT22;15177;50.844;4.412;2022-08-01T07:02:08;22.90;99.90
27797;DHT22;15177;50.844;4.412;2022-08-01T07:04:34;22.90;99.90
27797;DHT22;15177;50.844;4.412;2022-08-01T07:07:00;22.90;99.90
27797;DHT22;15177;50.844;4.412;2022-08-01T07:09:26;23.00;99.90
27797;DHT22;15177;50.844;4.412;2022-08-01T07:11:52;23.10;99.90
27797;DHT22;15177;50.844;4.412;2022-08-01T07:14:20;23.20;99.90
27797;DHT22;15177;50.844;4.412;2022-08-01T07:16:47;23.30;99.90
27797;DHT22;15177;50.844;4.412;2022-08-01T07:19:13;23.40;99.90
27797;DHT22;15177;50.844;4.412;2022-08-01T07:21:39;23.40;99.90
27797;DHT22;15177;50.844;4.412;2022-08-01T07:24:06;23.40;99.90
27797;DHT22;15177;50.844;4.412;2022-08-01T07:26:32;23.50;99.90
27797;DHT22;15177;50.844;4.412;2022-08-01T07:28:58;23.60;99.90
27797;DHT22;15177;50.844;4.412;2022-08-01T07:31:23;23.60;99.90
27797;DHT22;15177;50.844;4.412;2022-08-01T07:33:49;23.70;99.90
27797;DHT22;15177;50.844;4.412;2022-08-01T07:36:16;23.80;99.90
27797;DHT22;15177;50.844;4.412;2022-08-01T07:38:43;24.00;99.90
27797;DHT22;15177;50.844;4.412;2022-08-01T07:41:09;24.10;99.90
27797;DHT22;15177;50.844;4.412;2022-08-01T07:43:35;24.00;99.90
27797;DHT22;15177;50.844;4.412;2022-08-01T07:46:02;24.00;99.90
27797;DHT22;15177;50.844;4.412;2022-08-01T07:48:29;23.80;99.90
27797;DHT22;15177;50.844;4.412;2022-08-01T07:50:55;23.80;99.90
27797;DHT22;15177;50.844;4.412;2022-08-01T07:53:20;23.80;99.90
27797;DHT22;15177;50.844;4.412;2022-08-01T07:55:46;23.80;99.90
27797;DHT22;15177;50.844;4.412;2022-08-01T07:58:13;24.00;99.90
27797;DHT22;15177;50.844;4.412;2022-08-01T08:00:38;24.30;99.90
27797;DHT22;15177;50.844;4.412;2022-08-01T08:03:04;24.60;99.90
27797;DHT22;15177;50.844;4.412;2022-08-01T08:05:31;24.90;99.90
27797;DHT22;15177;50.844;4.412;2022-08-01T08:07:57;25.20;99.90
27797;DHT22;15177;50.844;4.412;2022-08-01T08:10:23;25.30;99.90
27797;DHT22;15177;50.844;4.412;2022-08-01T08:12:48;25.90;99.90
27797;DHT22;15177;50.844;4.412;2022-08-01T08:15:15;27.10;99.90
27797;DHT22;15177;50.844;4.412;2022-08-01T08:17:40;28.40;99.90
27797;DHT22;15177;50.844;4.412;2022-08-01T08:20:07;29.60;98.30
27797;DHT22;15177;50.844;4.412;2022-08-01T08:22:33;30.10;94.30
27797;DHT22;15177;50.844;4.412;2022-08-01T08:24:59;30.50;93.80
27797;DHT22;15177;50.844;4.412;2022-08-01T08:27:25;31.10;91.40
27797;DHT22;15177;50.844;4.412;2022-08-01T08:29:52;31.00;90.60
27797;DHT22;15177;50.844;4.412;2022-08-01T08:32:17;30.70;89.80
27797;DHT22;15177;50.844;4.412;2022-08-01T08:34:43;30.10;90.90
27797;DHT22;15177;50.844;4.412;2022-08-01T08:37:09;29.50;92.10
27797;DHT22;15177;50.844;4.412;2022-08-01T08:39:35;29.10;93.20
27797;DHT22;15177;50.844;4.412;2022-08-01T08:42:01;28.50;94.40
27797;DHT22;15177;50.844;4.412;2022-08-01T08:44:31;28.00;95.80
27797;DHT22;15177;50.844;4.412;2022-08-01T08:46:58;27.90;97.20
27797;DHT22;15177;50.844;4.412;2022-08-01T08:49:27;27.50;97.70
27797;DHT22;15177;50.844;4.412;2022-08-01T08:51:58;27.40;98.30
27797;DHT22;15177;50.844;4.412;2022-08-01T08:54:25;27.70;97.90
27797;DHT22;15177;50.844;4.412;2022-08-01T08:56:52;28.10;95.90
27797;DHT22;15177;50.844;4.412;2022-08-01T08:59:18;28.30;95.00
27797;DHT22;15177;50.844;4.412;2022-08-01T09:01:44;28.50;94.20
27797;DHT22;15177;50.844;4.412;2022-08-01T09:04:11;28.70;93.50
27797;DHT22;15177;50.844;4.412;2022-08-01T09:06:37;28.90;92.60
27797;DHT22;15177;50.844;4.412;2022-08-01T09:09:03;28.90;92.10
27797;DHT22;15177;50.844;4.412;2022-08-01T09:11:29;29.60;91.40
27797;DHT22;15177;50.844;4.412;2022-08-01T09:14:06;30.60;86.10
27797;DHT22;15177;50.844;4.412;2022-08-01T09:16:33;30.90;82.60
27797;DHT22;15177;50.844;4.412;2022-08-01T09:19:14;30.50;82.90
27797;DHT22;15177;50.844;4.412;2022-08-01T09:21:59;30.30;82.20
27797;DHT22;15177;50.844;4.412;2022-08-01T09:24:29;30.20;82.00
27797;DHT22;15177;50.844;4.412;2022-08-01T09:26:55;30.40;80.50
27797;DHT22;15177;50.844;4.412;2022-08-01T09:29:24;29.70;81.50
27797;DHT22;15177;50.844;4.412;2022-08-01T09:31:50;29.30;83.50
27797;DHT22;15177;50.844;4.412;2022-08-01T09:34:28;29.20;86.00
27797;DHT22;15177;50.844;4.412;2022-08-01T09:37:00;29.30;86.00
27797;DHT22;15177;50.844;4.412;2022-08-01T09:39:27;29.60;85.90
27797;DHT22;15177;50.844;4.412;2022-08-01T09:41:55;29.20;86.60
27797;DHT22;15177;50.844;4.412;2022-08-01T09:44:38;28.40;90.20
27797;DHT22;15177;50.844;4.412;2022-08-01T09:47:04;28.20;91.20
27797;DHT22;15177;50.844;4.412;2022-08-01T09:49:40;28.40;91.40
27797;DHT22;15177;50.844;4.412;2022-08-01T09:52:21;28.50;91.60
27797;DHT22;15177;50.844;4.412;2022-08-01T09:55:14;28.10;92.10
27797;DHT22;15177;50.844;4.412;2022-08-01T09:57:57;27.90;93.40
27797;DHT22;15177;50.844;4.412;2022-08-01T10:00:26;28.00;93.20
27797;DHT22;15177;50.844;4.412;2022-08-01T10:02:51;27.90;92.90
27797;DHT22;15177;50.844;4.412;2022-08-01T10:05:17;28.50;92.80
27797;DHT22;15177;50.844;4.412;2022-08-01T10:10:22;31.00;82.90
27797;DHT22;15177;50.844;4.412;2022-08-01T10:12:48;31.80;77.90
27797;DHT22;15177;50.844;4.412;2022-08-01T10:15:15;32.50;74.00
27797;DHT22;15177;50.844;4.412;2022-08-01T10:17:46;33.00;71.20
27797;DHT22;15177;50.844;4.412;2022-08-01T10:20:16;32.90;68.80
27797;DHT22;15177;50.844;4.412;2022-08-01T10:22:42;32.60;68.90
27797;DHT22;15177;50.844;4.412;2022-08-01T10:25:09;32.20;69.40
27797;DHT22;15177;50.844;4.412;2022-08-01T10:27:36;31.80;70.30
27797;DHT22;15177;50.844;4.412;2022-08-01T10:30:04;31.40;71.30
27797;DHT22;15177;50.844;4.412;2022-08-01T10:32:31;31.10;72.90
27797;DHT22;15177;50.844;4.412;2022-08-01T10:34:58;30.70;73.40
27797;DHT22;15177;50.844;4.412;2022-08-01T10:37:25;29.40;77.30
27797;DHT22;15177;50.844;4.412;2022-08-01T10:39:51;28.90;80.10
27797;DHT22;15177;50.844;4.412;2022-08-01T10:42:18;28.40;80.90
27797;DHT22;15177;50.844;4.412;2022-08-01T10:44:44;28.40;81.30
27797;DHT22;15177;50.844;4.412;2022-08-01T10:49:58;28.00;83.20
27797;DHT22;15177;50.844;4.412;2022-08-01T10:52:27;28.00;84.30
27797;DHT22;15177;50.844;4.412;2022-08-01T10:55:03;28.40;83.10
27797;DHT22;15177;50.844;4.412;2022-08-01T10:57:41;28.60;82.60
27797;DHT22;15177;50.844;4.412;2022-08-01T11:00:07;28.60;81.90
27797;DHT22;15177;50.844;4.412;2022-08-01T11:02:33;28.50;82.60
27797;DHT22;15177;50.844;4.412;2022-08-01T11:05:19;28.60;81.40
27797;DHT22;15177;50.844;4.412;2022-08-01T11:07:52;28.80;81.10
27797;DHT22;15177;50.844;4.412;2022-08-01T11:13:06;29.60;76.40
27797;DHT22;15177;50.844;4.412;2022-08-01T11:15:40;30.20;75.20
27797;DHT22;15177;50.844;4.412;2022-08-01T11:20:59;31.70;69.70
27797;DHT22;15177;50.844;4.412;2022-08-01T11:23:26;32.10;67.20
27797;DHT22;15177;50.844;4.412;2022-08-01T11:28:23;32.10;65.90
27797;DHT22;15177;50.844;4.412;2022-08-01T11:30:54;32.30;65.20
27797;DHT22;15177;50.844;4.412;2022-08-01T11:38:36;31.40;65.30
27797;DHT22;15177;50.844;4.412;2022-08-01T11:43:36;30.60;65.30
27797;DHT22;15177;50.844;4.412;2022-08-01T11:46:19;30.50;65.50
27797;DHT22;15177;50.844;4.412;2022-08-01T11:48:45;30.30;68.10
27797;DHT22;15177;50.844;4.412;2022-08-01T11:51:16;30.40;68.70
27797;DHT22;15177;50.844;4.412;2022-08-01T11:53:49;30.50;68.30
27797;DHT22;15177;50.844;4.412;2022-08-01T11:56:16;30.30;67.80
27797;DHT22;15177;50.844;4.412;2022-08-01T11:58:44;30.10;68.90
27797;DHT22;15177;50.844;4.412;2022-08-01T12:01:12;29.70;70.20
27797;DHT22;15177;50.844;4.412;2022-08-01T12:03:38;29.60;70.60
27797;DHT22;15177;50.844;4.412;2022-08-01T12:06:03;29.40;70.70
27797;DHT22;15177;50.844;4.412;2022-08-01T12:08:31;29.30;68.80
27797;DHT22;15177;50.844;4.412;2022-08-01T12:11:03;29.20;69.10
27797;DHT22;15177;50.844;4.412;2022-08-01T12:13:42;29.20;68.70
27797;DHT22;15177;50.844;4.412;2022-08-01T12:16:09;29.20;69.70
27797;DHT22;15177;50.844;4.412;2022-08-01T12:18:40;29.10;71.10
27797;DHT22;15177;50.844;4.412;2022-08-01T12:21:06;29.20;71.30
27797;DHT22;15177;50.844;4.412;2022-08-01T12:23:31;29.40;71.40
27797;DHT22;15177;50.844;4.412;2022-08-01T12:25:57;29.50;70.50
27797;DHT22;15177;50.844;4.412;2022-08-01T12:28:22;29.50;69.60
27797;DHT22;15177;50.844;4.412;2022-08-01T12:30:49;29.30;70.50
27797;DHT22;15177;50.844;4.412;2022-08-01T12:33:18;29.30;70.90
27797;DHT22;15177;50.844;4.412;2022-08-01T12:35:44;29.20;70.70
27797;DHT22;15177;50.844;4.412;2022-08-01T12:38:22;29.20;70.90
27797;DHT22;15177;50.844;4.412;2022-08-01T12:40:48;29.20;70.80
27797;DHT22;15177;50.844;4.412;2022-08-01T12:43:18;29.10;70.20
27797;DHT22;15177;50.844;4.412;2022-08-01T12:45:46;29.00;69.20
27797;DHT22;15177;50.844;4.412;2022-08-01T12:48:14;28.90;69.00
27797;DHT22;15177;50.844;4.412;2022-08-01T12:50:45;28.90;69.20
27797;DHT22;15177;50.844;4.412;2022-08-01T12:53:12;28.90;69.20
27797;DHT22;15177;50.844;4.412;2022-08-01T12:55:52;28.80;69.20
27797;DHT22;15177;50.844;4.412;2022-08-01T12:58:19;28.60;69.30
27797;DHT22;15177;50.844;4.412;2022-08-01T13:00:48;28.40;70.10
27797;DHT22;15177;50.844;4.412;2022-08-01T13:03:19;28.40;70.40
27797;DHT22;15177;50.844;4.412;2022-08-01T13:05:47;28.50;69.70
27797;DHT22;15177;50.844;4.412;2022-08-01T13:08:16;28.90;69.20
27797;DHT22;15177;50.844;4.412;2022-08-01T13:10:42;29.00;69.30
27797;DHT22;15177;50.844;4.412;2022-08-01T13:13:08;29.10;69.10
27797;DHT22;15177;50.844;4.412;2022-08-01T13:15:37;29.10;69.20
27797;DHT22;15177;50.844;4.412;2022-08-01T13:18:26;28.70;70.00
27797;DHT22;15177;50.844;4.412;2022-08-01T13:23:34;28.60;70.70
27797;DHT22;15177;50.844;4.412;2022-08-01T13:25:59;28.70;70.70
27797;DHT22;15177;50.844;4.412;2022-08-01T13:28:26;28.40;71.10
27797;DHT22;15177;50.844;4.412;2022-08-01T13:31:01;28.20;71.20
27797;DHT22;15177;50.844;4.412;2022-08-01T13:33:46;28.00;72.30
27797;DHT22;15177;50.844;4.412;2022-08-01T13:36:12;28.00;71.70
27797;DHT22;15177;50.844;4.412;2022-08-01T13:38:39;27.90;71.30
27797;DHT22;15177;50.844;4.412;2022-08-01T13:41:16;28.10;70.70
27797;DHT22;15177;50.844;4.412;2022-08-01T13:43:42;28.00;69.00
27797;DHT22;15177;50.844;4.412;2022-08-01T13:46:08;27.90;69.00
27797;DHT22;15177;50.844;4.412;2022-08-01T13:48:35;27.70;70.30
27797;DHT22;15177;50.844;4.412;2022-08-01T13:51:00;27.60;71.40
27797;DHT22;15177;50.844;4.412;2022-08-01T13:53:27;27.50;71.60
27797;DHT22;15177;50.844;4.412;2022-08-01T13:55:52;27.50;70.20
27797;DHT22;15177;50.844;4.412;2022-08-01T13:58:18;27.40;69.90
27797;DHT22;15177;50.844;4.412;2022-08-01T14:00:44;27.50;69.90
27797;DHT22;15177;50.844;4.412;2022-08-01T14:03:12;27.60;69.40
27797;DHT22;15177;50.844;4.412;2022-08-01T14:05:38;27.80;68.40
27797;DHT22;15177;50.844;4.412;2022-08-01T14:08:04;28.00;67.80
27797;DHT22;15177;50.844;4.412;2022-08-01T14:10:30;28.10;68.40
27797;DHT22;15177;50.844;4.412;2022-08-01T14:12:56;28.10;68.20
27797;DHT22;15177;50.844;4.412;2022-08-01T14:15:23;28.10;67.90
27797;DHT22;15177;50.844;4.412;2022-08-01T14:17:49;28.20;68.10
27797;DHT22;15177;50.844;4.412;2022-08-01T14:20:14;28.00;67.90
27797;DHT22;15177;50.844;4.412;2022-08-01T14:22:40;27.90;68.30
27797;DHT22;15177;50.844;4.412;2022-08-01T14:25:06;27.70;68.00
27797;DHT22;15177;50.844;4.412;2022-08-01T14:27:33;27.60;68.80
27797;DHT22;15177;50.844;4.412;2022-08-01T14:30:02;27.60;69.30
27797;DHT22;15177;50.844;4.412;2022-08-01T14:32:28;27.70;68.90
27797;DHT22;15177;50.844;4.412;2022-08-01T14:34:54;27.80;68.30
27797;DHT22;15177;50.844;4.412;2022-08-01T14:37:20;27.80;67.40
27797;DHT22;15177;50.844;4.412;2022-08-01T14:39:47;27.70;67.60
27797;DHT22;15177;50.844;4.412;2022-08-01T14:42:13;27.80;68.10
27797;DHT22;15177;50.844;4.412;2022-08-01T14:44:39;27.70;67.80
27797;DHT22;15177;50.844;4.412;2022-08-01T14:47:04;27.80;68.00
27797;DHT22;15177;50.844;4.412;2022-08-01T14:49:30;27.80;67.50
27797;DHT22;15177;50.844;4.412;2022-08-01T14:51:56;27.70;68.00
27797;DHT22;15177;50.844;4.412;2022-08-01T14:54:21;27.70;68.60
27797;DHT22;15177;50.844;4.412;2022-08-01T14:56:47;27.70;69.20
27797;DHT22;15177;50.844;4.412;2022-08-01T14:59:13;27.70;68.80
27797;DHT22;15177;50.844;4.412;2022-08-01T15:01:38;27.80;68.40
27797;DHT22;15177;50.844;4.412;2022-08-01T15:04:04;27.90;67.50
27797;DHT22;15177;50.844;4.412;2022-08-01T15:06:30;27.90;66.70
27797;DHT22;15177;50.844;4.412;2022-08-01T15:08:55;27.80;66.60
27797;DHT22;15177;50.844;4.412;2022-08-01T15:11:21;27.80;66.90
27797;DHT22;15177;50.844;4.412;2022-08-01T15:13:46;27.80;66.10
27797;DHT22;15177;50.844;4.412;2022-08-01T15:16:32;27.60;66.30
27797;DHT22;15177;50.844;4.412;2022-08-01T15:18:57;27.40;66.50
27797;DHT22;15177;50.844;4.412;2022-08-01T15:21:23;27.40;66.50
27797;DHT22;15177;50.844;4.412;2022-08-01T15:23:48;27.20;67.10
27797;DHT22;15177;50.844;4.412;2022-08-01T15:26:15;27.40;67.10
27797;DHT22;15177;50.844;4.412;2022-08-01T15:28:41;27.40;66.40
27797;DHT22;15177;50.844;4.412;2022-08-01T15:31:06;27.50;66.70
27797;DHT22;15177;50.844;4.412;2022-08-01T15:33:32;27.40;66.90
27797;DHT22;15177;50.844;4.412;2022-08-01T15:35:57;27.40;67.50
27797;DHT22;15177;50.844;4.412;2022-08-01T15:38:23;27.30;67.70
27797;DHT22;15177;50.844;4.412;2022-08-01T15:40:48;27.20;67.80
27797;DHT22;15177;50.844;4.412;2022-08-01T15:43:14;27.20;67.70
27797;DHT22;15177;50.844;4.412;2022-08-01T15:45:39;27.20;67.80
27797;DHT22;15177;50.844;4.412;2022-08-01T15:48:05;27.20;67.10
27797;DHT22;15177;50.844;4.412;2022-08-01T15:50:31;27.40;67.30
27797;DHT22;15177;50.844;4.412;2022-08-01T15:52:56;27.40;67.30
27797;DHT22;15177;50.844;4.412;2022-08-01T15:55:22;27.30;67.70
27797;DHT22;15177;50.844;4.412;2022-08-01T15:57:47;27.20;67.70
27797;DHT22;15177;50.844;4.412;2022-08-01T16:00:13;27.20;68.00
27797;DHT22;15177;50.844;4.412;2022-08-01T16:02:39;27.20;68.40
27797;DHT22;15177;50.844;4.412;2022-08-01T16:05:06;27.20;68.00
27797;DHT22;15177;50.844;4.412;2022-08-01T16:07:32;27.10;67.90
27797;DHT22;15177;50.844;4.412;2022-08-01T16:09:57;27.10;69.10
27797;DHT22;15177;50.844;4.412;2022-08-01T16:12:23;27.10;68.80
27797;DHT22;15177;50.844;4.412;2022-08-01T16:14:49;27.30;68.40